sensor_id;sensor_type;location;lat;lon;timestamp;pressure;altitude;pressure_sealevel;temperature;humidity
7264;BME280;3673;52.480;13.348;2023-03-01T00:00:05;102693.19;;;6.91;42.90
7264;BME280;3673;52.480;13.348;2023-03-01T00:02:33;102699.97;;;6.88;42.69
7264;BME280;3673;52.480;13.348;2023-03-01T00:05:00;102697.22;;;6.85;42.53
7264;BME280;3673;52.480;13.348;2023-03-01T00:07:28;102704.53;;;6.74;42.85
7264;BME280;3673;52.480;13.348;2023-03-01T00:09:55;102695.47;;;6.84;42.94
7264;BME280;3673;52.480;13.348;2023-03-01T00:12:22;102696.94;;;6.98;42.72
7264;BME280;3673;52.480;13.348;2023-03-01T00:14:48;102682.50;;;7.04;42.46
7264;BME280;3673;52.480;13.348;2023-03-01T00:17:15;102677.72;;;6.94;42.67
7264;BME280;3673;52.480;13.348;2023-03-01T00:19:42;102670.78;;;6.95;42.54
7264;BME280;3673;52.480;13.348;2023-03-01T00:22:09;102680.75;;;7.03;42.84
7264;BME280;3673;52.480;13.348;2023-03-01T00:24:37;102674.69;;;7.04;42.95
7264;BME280;3673;52.480;13.348;2023-03-01T00:27:04;102665.13;;;7.03;43.27
7264;BME280;3673;52.480;13.348;2023-03-01T00:29:31;102670.78;;;7.14;43.29
7264;BME280;3673;52.480;13.348;2023-03-01T00:31:57;102674.88;;;7.28;43.66
7264;BME280;3673;52.480;13.348;2023-03-01T00:34:24;102673.31;;;7.32;43.48
7264;BME280;3673;52.480;13.348;2023-03-01T00:36:51;102673.31;;;7.32;43.64
7264;BME280;3673;52.480;13.348;2023-03-01T00:39:18;102673.53;;;7.17;43.96
7264;BME280;3673;52.480;13.348;2023-03-01T00:41:46;102672.97;;;7.24;43.76
7264;BME280;3673;52.480;13.348;2023-03-01T00:44:12;102663.44;;;7.24;43.73
7264;BME280;3673;52.480;13.348;2023-03-01T00:46:39;102662.63;;;7.25;43.63
7264;BME280;3673;52.480;13.348;2023-03-01T00:49:06;102665.91;;;7.21;43.33
7264;BME280;3673;52.480;13.348;2023-03-01T00:51:33;102663.19;;;7.18;43.89
7264;BME280;3673;52.480;13.348;2023-03-01T00:54:02;102660.66;;;7.01;43.88
7264;BME280;3673;52.480;13.348;2023-03-01T00:56:30;102663.88;;;7.14;44.20
7264;BME280;3673;52.480;13.348;2023-03-01T00:58:58;102663.25;;;7.20;44.24
7264;BME280;3673;52.480;13.348;2023-03-01T01:01:27;102670.22;;;7.21;44.16
7264;BME280;3673;52.480;13.348;2023-03-01T01:03:58;102659.69;;;7.18;44.08
7264;BME280;3673;52.480;13.348;2023-03-01T01:06:28;102659.97;;;7.05;44.86
7264;BME280;3673;52.480;13.348;2023-03-01T01:08:56;102647.84;;;7.05;44.40
7264;BME280;3673;52.480;13.348;2023-03-01T01:11:24;102649.94;;;6.93;44.16
7264;BME280;3673;52.480;13.348;2023-03-01T01:13:52;102653.97;;;7.06;44.70
7264;BME280;3673;52.480;13.348;2023-03-01T01:16:23;102647.19;;;7.09;43.90
7264;BME280;3673;52.480;13.348;2023-03-01T01:18:50;102656.13;;;7.16;44.48
7264;BME280;3673;52.480;13.348;2023-03-01T01:21:20;102646.50;;;7.13;44.68
7264;BME280;3673;52.480;13.348;2023-03-01T01:23:48;102642.09;;;7.12;44.94
7264;BME280;3673;52.480;13.348;2023-03-01T01:26:19;102644.28;;;7.22;44.78
7264;BME280;3673;52.480;13.348;2023-03-01T01:28:46;102643.00;;;7.13;45.07
7264;BME280;3673;52.480;13.348;2023-03-01T01:31:14;102631.00;;;7.16;44.89
7264;BME280;3673;52.480;13.348;2023-03-01T01:33:42;102624.22;;;7.20;45.07
7264;BME280;3673;52.480;13.348;2023-03-01T01:36:09;102620.78;;;7.21;44.73
7264;BME280;3673;52.480;13.348;2023-03-01T01:38:37;102616.91;;;7.32;44.51
7264;BME280;3673;52.480;13.348;2023-03-01T01:41:05;102607.75;;;7.21;44.78
7264;BME280;3673;52.480;13.348;2023-03-01T01:43:37;102609.28;;;7.16;44.92
7264;BME280;3673;52.480;13.348;2023-03-01T01:46:06;102618.72;;;7.14;44.69
7264;BME280;3673;52.480;13.348;2023-03-01T01:48:45;102603.19;;;7.15;44.44
7264;BME280;3673;52.480;13.348;2023-03-01T01:51:16;102609.13;;;6.92;45.45
7264;BME280;3673;52.480;13.348;2023-03-01T01:53:47;102612.38;;;7.07;45.12
7264;BME280;3673;52.480;13.348;2023-03-01T01:56:16;102617.00;;;7.14;45.14
7264;BME280;3673;52.480;13.348;2023-03-01T01:58:45;102625.72;;;7.15;44.73
7264;BME280;3673;52.480;13.348;2023-03-01T02:01:13;102619.78;;;6.98;44.85
7264;BME280;3673;52.480;13.348;2023-03-01T02:03:44;102620.97;;;6.86;45.52
7264;BME280;3673;52.480;13.348;2023-03-01T02:06:15;102619.44;;;6.71;44.81
7264;BME280;3673;52.480;13.348;2023-03-01T02:08:46;102633.22;;;6.69;44.92
7264;BME280;3673;52.480;13.348;2023-03-01T02:11:14;102630.72;;;6.34;45.96
7264;BME280;3673;52.480;13.348;2023-03-01T02:13:42;102624.81;;;6.18;45.77
7264;BME280;3673;52.480;13.348;2023-03-01T02:16:10;102631.25;;;6.27;45.42
7264;BME280;3673;52.480;13.348;2023-03-01T02:18:38;102629.84;;;6.15;45.68
7264;BME280;3673;52.480;13.348;2023-03-01T02:21:29;102626.75;;;6.05;45.99
7264;BME280;3673;52.480;13.348;2023-03-01T02:23:59;102615.59;;;6.07;46.48
7264;BME280;3673;52.480;13.348;2023-03-01T02:26:40;102626.41;;;6.34;46.09
7264;BME280;3673;52.480;13.348;2023-03-01T02:29:09;102632.31;;;6.49;45.77
7264;BME280;3673;52.480;13.348;2023-03-01T02:31:36;102613.63;;;6.58;45.31
7264;BME280;3673;52.480;13.348;2023-03-01T02:34:12;102634.53;;;6.59;45.18
7264;BME280;3673;52.480;13.348;2023-03-01T02:36:44;102629.50;;;6.45;45.26
7264;BME280;3673;52.480;13.348;2023-03-01T02:39:17;102634.94;;;6.32;45.96
7264;BME280;3673;52.480;13.348;2023-03-01T02:41:49;102621.34;;;6.37;46.05
7264;BME280;3673;52.480;13.348;2023-03-01T02:44:18;102630.78;;;6.35;45.71
7264;BME280;3673;52.480;13.348;2023-03-01T02:46:48;102629.13;;;6.37;45.86
7264;BME280;3673;52.480;13.348;2023-03-01T02:49:22;102631.59;;;6.34;46.33
7264;BME280;3673;52.480;13.348;2023-03-01T02:52:17;102625.84;;;6.22;46.27
7264;BME280;3673;52.480;13.348;2023-03-01T02:54:52;102625.59;;;6.17;46.10
7264;BME280;3673;52.480;13.348;2023-03-01T02:57:22;102619.56;;;5.99;46.18
7264;BME280;3673;52.480;13.348;2023-03-01T02:59:52;102614.78;;;5.91;46.55
7264;BME280;3673;52.480;13.348;2023-03-01T03:02:23;102611.47;;;5.93;46.62
7264;BME280;3673;52.480;13.348;2023-03-01T03:05:03;102604.03;;;6.01;46.29
7264;BME280;3673;52.480;13.348;2023-03-01T03:07:32;102600.63;;;6.02;46.44
7264;BME280;3673;52.480;13.348;2023-03-01T03:10:01;102603.59;;;5.92;47.00
7264;BME280;3673;52.480;13.348;2023-03-01T03:12:27;102600.75;;;6.05;46.98
7264;BME280;3673;52.480;13.348;2023-03-01T03:14:56;102612.69;;;6.19;46.47
7264;BME280;3673;52.480;13.348;2023-03-01T03:17:23;102600.31;;;6.13;46.53
7264;BME280;3673;52.480;13.348;2023-03-01T03:19:49;102605.03;;;6.22;46.29
7264;BME280;3673;52.480;13.348;2023-03-01T03:22:16;102601.00;;;6.09;46.50
7264;BME280;3673;52.480;13.348;2023-03-01T03:24:43;102605.91;;;6.03;46.28
7264;BME280;3673;52.480;13.348;2023-03-01T03:27:10;102613.31;;;5.96;46.50
7264;BME280;3673;52.480;13.348;2023-03-01T03:29:36;102603.81;;;5.96;47.06
7264;BME280;3673;52.480;13.348;2023-03-01T03:32:05;102596.31;;;6.02;46.74
7264;BME280;3673;52.480;13.348;2023-03-01T03:34:32;102597.41;;;6.07;46.96
7264;BME280;3673;52.480;13.348;2023-03-01T03:36:59;102595.56;;;6.05;46.59
7264;BME280;3673;52.480;13.348;2023-03-01T03:39:27;102592.81;;;5.84;46.80
7264;BME280;3673;52.480;13.348;2023-03-01T03:41:54;102596.38;;;5.68;47.41
7264;BME280;3673;52.480;13.348;2023-03-01T03:44:21;102589.84;;;5.77;47.52
7264;BME280;3673;52.480;13.348;2023-03-01T03:46:48;102589.91;;;5.78;47.49
7264;BME280;3673;52.480;13.348;2023-03-01T03:49:16;102585.31;;;5.72;47.34
7264;BME280;3673;52.480;13.348;2023-03-01T03:51:45;102577.53;;;5.72;47.17
7264;BME280;3673;52.480;13.348;2023-03-01T03:54:12;102579.53;;;5.60;47.45
7264;BME280;3673;52.480;13.348;2023-03-01T03:56:38;102571.59;;;5.57;47.67
7264;BME280;3673;52.480;13.348;2023-03-01T03:59:05;102567.91;;;5.52;47.34
7264;BME280;3673;52.480;13.348;2023-03-01T04:01:32;102564.63;;;5.56;47.73
7264;BME280;3673;52.480;13.348;2023-03-01T04:03:59;102566.09;;;5.51;47.50
7264;BME280;3673;52.480;13.348;2023-03-01T04:06:30;102574.06;;;5.37;47.95
7264;BME280;3673;52.480;13.348;2023-03-01T04:08:57;102562.16;;;5.42;48.05
7264;BME280;3673;52.480;13.348;2023-03-01T04:11:26;102564.34;;;5.50;48.01
7264;BME280;3673;52.480;13.348;2023-03-01T04:13:54;102569.50;;;5.68;47.53
7264;BME280;3673;52.480;13.348;2023-03-01T04:16:22;102564.59;;;5.74;47.54
7264;BME280;3673;52.480;13.348;2023-03-01T04:18:49;102577.41;;;5.87;47.36
7264;BME280;3673;52.480;13.348;2023-03-01T04:21:15;102570.34;;;5.67;47.57
7264;BME280;3673;52.480;13.348;2023-03-01T04:23:44;102574.88;;;5.53;48.15
7264;BME280;3673;52.480;13.348;2023-03-01T04:26:10;102573.63;;;5.63;48.08
7264;BME280;3673;52.480;13.348;2023-03-01T04:28:39;102577.25;;;5.49;48.08
7264;BME280;3673;52.480;13.348;2023-03-01T04:31:11;102571.88;;;5.28;48.44
7264;BME280;3673;52.480;13.348;2023-03-01T04:33:44;102573.06;;;5.17;49.03
7264;BME280;3673;52.480;13.348;2023-03-01T04:36:14;102564.59;;;5.21;48.75
7264;BME280;3673;52.480;13.348;2023-03-01T04:38:41;102567.13;;;5.19;48.95
7264;BME280;3673;52.480;13.348;2023-03-01T04:41:10;102570.03;;;5.26;48.96
7264;BME280;3673;52.480;13.348;2023-03-01T04:43:37;102564.19;;;5.30;49.11
7264;BME280;3673;52.480;13.348;2023-03-01T04:46:08;102567.44;;;5.26;49.14
7264;BME280;3673;52.480;13.348;2023-03-01T04:48:36;102567.97;;;5.36;49.39
7264;BME280;3673;52.480;13.348;2023-03-01T04:51:04;102559.34;;;5.55;49.17
7264;BME280;3673;52.480;13.348;2023-03-01T04:53:33;102557.38;;;5.67;49.12
7264;BME280;3673;52.480;13.348;2023-03-01T04:56:02;102556.91;;;5.76;48.67
7264;BME280;3673;52.480;13.348;2023-03-01T04:58:30;102563.75;;;5.91;48.21
7264;BME280;3673;52.480;13.348;2023-03-01T05:00:57;102565.75;;;5.79;48.19
7264;BME280;3673;52.480;13.348;2023-03-01T05:03:24;102563.00;;;5.58;48.65
7264;BME280;3673;52.480;13.348;2023-03-01T05:05:52;102565.22;;;5.51;49.27
7264;BME280;3673;52.480;13.348;2023-03-01T05:08:19;102550.84;;;5.40;48.88
7264;BME280;3673;52.480;13.348;2023-03-01T05:10:49;102554.47;;;5.43;48.85
7264;BME280;3673;52.480;13.348;2023-03-01T05:13:17;102560.31;;;5.39;49.25
7264;BME280;3673;52.480;13.348;2023-03-01T05:15:49;102540.34;;;5.20;49.63
7264;BME280;3673;52.480;13.348;2023-03-01T05:18:20;102556.69;;;5.36;49.74
7264;BME280;3673;52.480;13.348;2023-03-01T05:20:47;102563.06;;;5.42;49.36
7264;BME280;3673;52.480;13.348;2023-03-01T05:23:13;102554.09;;;5.53;48.93
7264;BME280;3673;52.480;13.348;2023-03-01T05:25:40;102559.56;;;5.42;49.22
7264;BME280;3673;52.480;13.348;2023-03-01T05:28:11;102571.66;;;5.24;49.57
7264;BME280;3673;52.480;13.348;2023-03-01T05:30:38;102561.34;;;5.25;49.86
7264;BME280;3673;52.480;13.348;2023-03-01T05:33:07;102561.69;;;5.15;49.33
7264;BME280;3673;52.480;13.348;2023-03-01T05:35:39;102557.50;;;5.01;49.73
7264;BME280;3673;52.480;13.348;2023-03-01T05:38:07;102555.97;;;5.04;49.86
7264;BME280;3673;52.480;13.348;2023-03-01T05:40:34;102552.13;;;5.14;49.89
7264;BME280;3673;52.480;13.348;2023-03-01T05:43:01;102547.81;;;5.14;50.21
7264;BME280;3673;52.480;13.348;2023-03-01T05:45:31;102550.31;;;5.29;49.43
7264;BME280;3673;52.480;13.348;2023-03-01T05:47:58;102550.66;;;5.19;49.81
7264;BME280;3673;52.480;13.348;2023-03-01T05:50:29;102549.88;;;5.20;49.93
7264;BME280;3673;52.480;13.348;2023-03-01T05:53:02;102549.88;;;5.20;49.34
7264;BME280;3673;52.480;13.348;2023-03-01T05:55:30;102537.41;;;5.13;49.83
7264;BME280;3673;52.480;13.348;2023-03-01T05:57:59;102544.38;;;5.32;49.54
7264;BME280;3673;52.480;13.348;2023-03-01T06:00:27;102557.63;;;5.38;49.51
7264;BME280;3673;52.480;13.348;2023-03-01T06:02:54;102546.81;;;5.29;49.93
7264;BME280;3673;52.480;13.348;2023-03-01T06:05:22;102554.16;;;5.19;50.13
7264;BME280;3673;52.480;13.348;2023-03-01T06:07:50;102559.34;;;5.19;50.09
7264;BME280;3673;52.480;13.348;2023-03-01T06:10:20;102546.53;;;5.23;50.23
7264;BME280;3673;52.480;13.348;2023-03-01T06:12:47;102555.75;;;5.34;50.12
7264;BME280;3673;52.480;13.348;2023-03-01T06:15:16;102556.56;;;5.50;49.31
7264;BME280;3673;52.480;13.348;2023-03-01T06:17:45;102546.53;;;5.58;49.21
7264;BME280;3673;52.480;13.348;2023-03-01T06:20:15;102552.00;;;5.64;49.05
7264;BME280;3673;52.480;13.348;2023-03-01T06:22:42;102549.41;;;5.64;49.03
7264;BME280;3673;52.480;13.348;2023-03-01T06:25:12;102554.91;;;5.70;48.84
7264;BME280;3673;52.480;13.348;2023-03-01T06:27:40;102549.63;;;5.68;49.03
7264;BME280;3673;52.480;13.348;2023-03-01T06:30:10;102552.09;;;5.65;49.28
7264;BME280;3673;52.480;13.348;2023-03-01T06:32:38;102555.44;;;5.63;49.08
7264;BME280;3673;52.480;13.348;2023-03-01T06:35:08;102557.66;;;5.73;49.28
7264;BME280;3673;52.480;13.348;2023-03-01T06:37:36;102550.16;;;5.79;49.09
7264;BME280;3673;52.480;13.348;2023-03-01T06:40:03;102558.50;;;5.90;48.90
7264;BME280;3673;52.480;13.348;2023-03-01T06:42:34;102558.97;;;5.83;49.08
7264;BME280;3673;52.480;13.348;2023-03-01T06:45:01;102553.34;;;5.91;49.34
7264;BME280;3673;52.480;13.348;2023-03-01T06:47:28;102562.22;;;6.14;48.76
7264;BME280;3673;52.480;13.348;2023-03-01T06:50:00;102562.78;;;6.26;48.45
7264;BME280;3673;52.480;13.348;2023-03-01T06:52:27;102563.69;;;6.27;48.33
7264;BME280;3673;52.480;13.348;2023-03-01T06:54:54;102564.34;;;6.03;48.88
7264;BME280;3673;52.480;13.348;2023-03-01T06:57:21;102562.28;;;6.15;48.89
7264;BME280;3673;52.480;13.348;2023-03-01T06:59:49;102556.78;;;6.27;48.65
7264;BME280;3673;52.480;13.348;2023-03-01T07:02:16;102552.19;;;6.41;48.13
7264;BME280;3673;52.480;13.348;2023-03-01T07:04:43;102558.75;;;6.52;47.98
7264;BME280;3673;52.480;13.348;2023-03-01T07:07:10;102563.63;;;6.63;47.82
7264;BME280;3673;52.480;13.348;2023-03-01T07:09:37;102560.59;;;6.54;47.83
7264;BME280;3673;52.480;13.348;2023-03-01T07:12:05;102564.34;;;6.61;47.38
7264;BME280;3673;52.480;13.348;2023-03-01T07:14:32;102566.63;;;6.72;47.55
7264;BME280;3673;52.480;13.348;2023-03-01T07:17:00;102576.78;;;6.87;47.25
7264;BME280;3673;52.480;13.348;2023-03-01T07:19:26;102574.47;;;6.74;47.54
7264;BME280;3673;52.480;13.348;2023-03-01T07:21:53;102577.50;;;6.83;47.75
7264;BME280;3673;52.480;13.348;2023-03-01T07:24:21;102569.03;;;7.08;46.91
7264;BME280;3673;52.480;13.348;2023-03-01T07:26:49;102570.38;;;7.19;46.58
7264;BME280;3673;52.480;13.348;2023-03-01T07:29:16;102571.44;;;7.03;46.89
7264;BME280;3673;52.480;13.348;2023-03-01T07:31:44;102568.84;;;7.24;46.42
7264;BME280;3673;52.480;13.348;2023-03-01T07:34:12;102565.63;;;7.30;46.28
7264;BME280;3673;52.480;13.348;2023-03-01T07:36:39;102573.47;;;7.31;46.72
7264;BME280;3673;52.480;13.348;2023-03-01T07:39:09;102579.94;;;6.99;46.74
7264;BME280;3673;52.480;13.348;2023-03-01T07:41:35;102572.13;;;7.41;45.58
7264;BME280;3673;52.480;13.348;2023-03-01T07:44:03;102572.66;;;7.53;45.32
7264;BME280;3673;52.480;13.348;2023-03-01T07:46:29;102569.09;;;7.51;44.71
7264;BME280;3673;52.480;13.348;2023-03-01T07:48:56;102567.38;;;7.31;44.82
7264;BME280;3673;52.480;13.348;2023-03-01T07:51:25;102559.88;;;7.38;44.36
7264;BME280;3673;52.480;13.348;2023-03-01T07:53:51;102557.16;;;7.56;44.00
7264;BME280;3673;52.480;13.348;2023-03-01T07:56:21;102564.38;;;7.63;43.61
7264;BME280;3673;52.480;13.348;2023-03-01T07:58:58;102566.56;;;7.74;43.36
7264;BME280;3673;52.480;13.348;2023-03-01T08:01:26;102568.03;;;7.46;43.30
7264;BME280;3673;52.480;13.348;2023-03-01T08:03:53;102565.00;;;7.78;42.79
7264;BME280;3673;52.480;13.348;2023-03-01T08:06:20;102563.63;;;7.88;42.47
7264;BME280;3673;52.480;13.348;2023-03-01T08:08:48;102560.66;;;8.01;42.71
7264;BME280;3673;52.480;13.348;2023-03-01T08:11:15;102564.63;;;7.91;42.95
7264;BME280;3673;52.480;13.348;2023-03-01T08:13:43;102571.16;;;8.02;42.48
7264;BME280;3673;52.480;13.348;2023-03-01T08:16:12;102556.13;;;7.73;42.43
7264;BME280;3673;52.480;13.348;2023-03-01T08:18:40;102553.63;;;8.20;41.08
7264;BME280;3673;52.480;13.348;2023-03-01T08:21:09;102557.47;;;7.86;41.42
7264;BME280;3673;52.480;13.348;2023-03-01T08:23:37;102558.91;;;8.00;41.68
7264;BME280;3673;52.480;13.348;2023-03-01T08:26:08;102557.22;;;8.24;40.89
7264;BME280;3673;52.480;13.348;2023-03-01T08:28:35;102558.78;;;8.19;40.93
7264;BME280;3673;52.480;13.348;2023-03-01T08:31:03;102547.63;;;8.23;40.89
7264;BME280;3673;52.480;13.348;2023-03-01T08:33:30;102545.06;;;8.24;40.23
7264;BME280;3673;52.480;13.348;2023-03-01T08:36:04;102537.31;;;8.48;39.28
7264;BME280;3673;52.480;13.348;2023-03-01T08:38:32;102527.16;;;8.56;39.26
7264;BME280;3673;52.480;13.348;2023-03-01T08:41:00;102539.91;;;7.80;39.62
7264;BME280;3673;52.480;13.348;2023-03-01T08:43:28;102546.22;;;8.55;39.04
7264;BME280;3673;52.480;13.348;2023-03-01T08:45:55;102538.59;;;8.59;38.40
7264;BME280;3673;52.480;13.348;2023-03-01T08:48:22;102537.88;;;8.40;38.81
7264;BME280;3673;52.480;13.348;2023-03-01T08:50:49;102538.75;;;8.64;37.72
7264;BME280;3673;52.480;13.348;2023-03-01T08:53:16;102527.75;;;8.98;37.30
7264;BME280;3673;52.480;13.348;2023-03-01T08:55:43;102532.22;;;9.00;37.12
7264;BME280;3673;52.480;13.348;2023-03-01T08:58:10;102528.09;;;9.07;37.51
7264;BME280;3673;52.480;13.348;2023-03-01T09:00:40;102523.16;;;9.16;36.61
7264;BME280;3673;52.480;13.348;2023-03-01T09:03:07;102525.81;;;9.17;37.24
7264;BME280;3673;52.480;13.348;2023-03-01T09:05:34;102530.91;;;9.40;37.01
7264;BME280;3673;52.480;13.348;2023-03-01T09:08:03;102531.03;;;9.44;36.97
7264;BME280;3673;52.480;13.348;2023-03-01T09:10:30;102527.56;;;9.17;36.15
7264;BME280;3673;52.480;13.348;2023-03-01T09:12:56;102524.28;;;9.51;36.22
7264;BME280;3673;52.480;13.348;2023-03-01T09:15:24;102524.00;;;9.42;36.28
7264;BME280;3673;52.480;13.348;2023-03-01T09:17:54;102514.16;;;9.33;35.81
7264;BME280;3673;52.480;13.348;2023-03-01T09:20:21;102500.66;;;9.19;35.80
7264;BME280;3673;52.480;13.348;2023-03-01T09:22:48;102513.00;;;9.50;35.42
7264;BME280;3673;52.480;13.348;2023-03-01T09:25:15;102515.72;;;9.55;35.57
7264;BME280;3673;52.480;13.348;2023-03-01T09:27:41;102517.88;;;9.41;36.08
7264;BME280;3673;52.480;13.348;2023-03-01T09:30:10;102509.56;;;9.53;35.76
7264;BME280;3673;52.480;13.348;2023-03-01T09:32:37;102507.25;;;9.62;35.23
7264;BME280;3673;52.480;13.348;2023-03-01T09:35:09;102517.78;;;9.38;35.91
7264;BME280;3673;52.480;13.348;2023-03-01T09:37:37;102512.22;;;9.27;35.53
7264;BME280;3673;52.480;13.348;2023-03-01T09:40:11;102517.97;;;9.43;35.34
7264;BME280;3673;52.480;13.348;2023-03-01T09:42:51;102506.91;;;9.24;35.06
7264;BME280;3673;52.480;13.348;2023-03-01T09:45:27;102504.72;;;9.93;34.50
7264;BME280;3673;52.480;13.348;2023-03-01T09:47:56;102509.06;;;9.93;33.81
7264;BME280;3673;52.480;13.348;2023-03-01T09:50:28;102504.31;;;9.79;34.38
7264;BME280;3673;52.480;13.348;2023-03-01T09:53:02;102503.00;;;9.65;34.06
7264;BME280;3673;52.480;13.348;2023-03-01T09:55:37;102506.31;;;9.88;33.97
7264;BME280;3673;52.480;13.348;2023-03-01T09:58:28;102509.28;;;9.72;34.20
7264;BME280;3673;52.480;13.348;2023-03-01T10:01:02;102503.09;;;9.97;33.55
7264;BME280;3673;52.480;13.348;2023-03-01T10:03:36;102518.03;;;10.29;33.20
7264;BME280;3673;52.480;13.348;2023-03-01T10:06:12;102511.91;;;10.28;33.04
7264;BME280;3673;52.480;13.348;2023-03-01T10:08:42;102513.38;;;10.19;33.03
7264;BME280;3673;52.480;13.348;2023-03-01T10:11:24;102508.09;;;10.17;33.40
7264;BME280;3673;52.480;13.348;2023-03-01T10:13:58;102504.28;;;10.36;33.07
7264;BME280;3673;52.480;13.348;2023-03-01T10:16:38;102516.69;;;10.43;32.55
7264;BME280;3673;52.480;13.348;2023-03-01T10:19:12;102509.19;;;10.24;32.76
7264;BME280;3673;52.480;13.348;2023-03-01T10:21:45;102514.06;;;10.43;32.50
7264;BME280;3673;52.480;13.348;2023-03-01T10:24:14;102514.88;;;10.12;32.65
7264;BME280;3673;52.480;13.348;2023-03-01T10:26:51;102503.81;;;10.19;31.94
7264;BME280;3673;52.480;13.348;2023-03-01T10:29:25;102504.28;;;10.36;31.13
7264;BME280;3673;52.480;13.348;2023-03-01T10:31:55;102505.00;;;10.62;31.29
7264;BME280;3673;52.480;13.348;2023-03-01T10:34:27;102499.16;;;10.72;31.97
7264;BME280;3673;52.480;13.348;2023-03-01T10:37:04;102502.41;;;10.32;33.00
7264;BME280;3673;52.480;13.348;2023-03-01T10:39:34;102493.38;;;10.52;32.82
7264;BME280;3673;52.480;13.348;2023-03-01T10:42:04;102488.34;;;9.99;33.08
7264;BME280;3673;52.480;13.348;2023-03-01T10:44:44;102494.69;;;10.68;32.49
7264;BME280;3673;52.480;13.348;2023-03-01T10:47:19;102488.75;;;11.08;32.18
7264;BME280;3673;52.480;13.348;2023-03-01T10:50:01;102482.94;;;11.19;31.64
7264;BME280;3673;52.480;13.348;2023-03-01T10:52:33;102488.53;;;11.70;30.83
7264;BME280;3673;52.480;13.348;2023-03-01T10:55:04;102481.81;;;11.46;31.47
7264;BME280;3673;52.480;13.348;2023-03-01T10:57:44;102488.03;;;12.28;30.07
7264;BME280;3673;52.480;13.348;2023-03-01T11:00:20;102478.75;;;12.46;29.50
7264;BME280;3673;52.480;13.348;2023-03-01T11:02:50;102473.69;;;12.56;29.26
7264;BME280;3673;52.480;13.348;2023-03-01T11:05:21;102472.91;;;12.60;29.13
7264;BME280;3673;52.480;13.348;2023-03-01T11:07:53;102456.16;;;13.05;28.34
7264;BME280;3673;52.480;13.348;2023-03-01T11:10:24;102453.25;;;13.37;27.79
7264;BME280;3673;52.480;13.348;2023-03-01T11:12:52;102452.63;;;13.57;27.33
7264;BME280;3673;52.480;13.348;2023-03-01T11:15:26;102449.88;;;13.48;27.03
7264;BME280;3673;52.480;13.348;2023-03-01T11:17:54;102441.22;;;14.24;26.30
7264;BME280;3673;52.480;13.348;2023-03-01T11:20:31;102444.25;;;14.59;26.03
7264;BME280;3673;52.480;13.348;2023-03-01T11:23:04;102437.19;;;14.53;25.97
7264;BME280;3673;52.480;13.348;2023-03-01T11:25:36;102439.94;;;14.67;25.39
7264;BME280;3673;52.480;13.348;2023-03-01T11:28:06;102437.69;;;14.22;25.32
7264;BME280;3673;52.480;13.348;2023-03-01T11:30:39;102439.28;;;14.90;24.77
7264;BME280;3673;52.480;13.348;2023-03-01T11:33:17;102431.47;;;15.03;24.78
7264;BME280;3673;52.480;13.348;2023-03-01T11:35:50;102420.00;;;14.96;24.09
7264;BME280;3673;52.480;13.348;2023-03-01T11:38:23;102429.69;;;15.02;24.21
7264;BME280;3673;52.480;13.348;2023-03-01T11:40:59;102423.59;;;15.09;24.21
7264;BME280;3673;52.480;13.348;2023-03-01T11:43:32;102423.22;;;15.85;23.51
7264;BME280;3673;52.480;13.348;2023-03-01T11:46:27;102413.69;;;16.21;22.80
7264;BME280;3673;52.480;13.348;2023-03-01T11:49:18;102417.16;;;16.12;22.39
7264;BME280;3673;52.480;13.348;2023-03-01T11:51:57;102426.81;;;16.00;22.73
7264;BME280;3673;52.480;13.348;2023-03-01T11:54:42;102428.69;;;16.43;22.38
7264;BME280;3673;52.480;13.348;2023-03-01T11:57:29;102420.69;;;16.13;21.52
7264;BME280;3673;52.480;13.348;2023-03-01T12:00:22;102419.00;;;16.48;21.02
7264;BME280;3673;52.480;13.348;2023-03-01T12:03:26;102417.88;;;15.72;21.11
7264;BME280;3673;52.480;13.348;2023-03-01T12:06:37;102418.19;;;16.85;20.00
7264;BME280;3673;52.480;13.348;2023-03-01T12:09:24;102418.84;;;15.89;20.42
7264;BME280;3673;52.480;13.348;2023-03-01T12:12:17;102401.34;;;16.20;20.01
7264;BME280;3673;52.480;13.348;2023-03-01T12:14:59;102401.44;;;16.59;19.68
7264;BME280;3673;52.480;13.348;2023-03-01T12:20:32;102394.41;;;17.04;19.32
7264;BME280;3673;52.480;13.348;2023-03-01T12:23:26;102393.50;;;17.24;19.89
7264;BME280;3673;52.480;13.348;2023-03-01T12:26:02;102392.66;;;16.80;19.96
7264;BME280;3673;52.480;13.348;2023-03-01T12:28:51;102377.66;;;16.59;19.95
7264;BME280;3673;52.480;13.348;2023-03-01T12:32:06;102382.91;;;17.18;18.91
7264;BME280;3673;52.480;13.348;2023-03-01T12:35:02;102374.03;;;17.43;18.57
7264;BME280;3673;52.480;13.348;2023-03-01T12:37:47;102371.28;;;17.75;18.46
7264;BME280;3673;52.480;13.348;2023-03-01T12:40:57;102360.72;;;17.69;18.68
7264;BME280;3673;52.480;13.348;2023-03-01T12:43:41;102364.25;;;17.70;18.07
7264;BME280;3673;52.480;13.348;2023-03-01T12:46:21;102355.50;;;17.51;18.38
7264;BME280;3673;52.480;13.348;2023-03-01T12:48:58;102353.69;;;17.51;18.51
7264;BME280;3673;52.480;13.348;2023-03-01T12:51:32;102354.56;;;17.70;18.47
7264;BME280;3673;52.480;13.348;2023-03-01T12:54:05;102341.34;;;17.66;18.64
7264;BME280;3673;52.480;13.348;2023-03-01T12:56:36;102338.47;;;18.11;18.24
7264;BME280;3673;52.480;13.348;2023-03-01T12:59:13;102341.03;;;18.19;18.10
7264;BME280;3673;52.480;13.348;2023-03-01T13:01:49;102332.44;;;17.83;18.36
7264;BME280;3673;52.480;13.348;2023-03-01T13:04:58;102335.22;;;17.38;18.42
7264;BME280;3673;52.480;13.348;2023-03-01T13:07:33;102336.88;;;17.75;17.30
7264;BME280;3673;52.480;13.348;2023-03-01T13:10:21;102327.34;;;17.18;18.07
7264;BME280;3673;52.480;13.348;2023-03-01T13:13:03;102328.19;;;17.44;17.93
7264;BME280;3673;52.480;13.348;2023-03-01T13:15:39;102323.78;;;17.40;18.52
7264;BME280;3673;52.480;13.348;2023-03-01T13:18:32;102331.72;;;17.28;18.98
7264;BME280;3673;52.480;13.348;2023-03-01T13:21:02;102322.03;;;17.33;19.28
7264;BME280;3673;52.480;13.348;2023-03-01T13:23:34;102323.59;;;17.84;18.12
7264;BME280;3673;52.480;13.348;2023-03-01T13:26:13;102318.91;;;18.27;17.88
7264;BME280;3673;52.480;13.348;2023-03-01T13:28:54;102314.81;;;17.72;18.44
7264;BME280;3673;52.480;13.348;2023-03-01T13:31:57;102320.06;;;17.82;18.22